Time;durP1;ratioP1;P1;durP2;ratioP2;P2;SDS_P1;SDS_P2;PMS_P1;PMS_P2;Temp;Humidity;BMP_temperature;BMP_pressure;BME280_temperature;BME280_humidity;BME280_pressure;Samples;Min_cycle;Max_cycle;Signal;HPM_P1;HPM_P2
2023/11/25 00:02:05;;;;;;;1.60;1.10;;;21.30;84.70;;;;;;5031407;28;20992;-65
2023/11/25 00:04:31;;;;;;;2.95;1.40;;;21.30;84.90;;;;;;5031895;28;20472;-65
2023/11/25 00:06:58;;;;;;;3.13;1.50;;;21.30;84.70;;;;;;5020598;28;20204;-65
2023/11/25 00:09:25;;;;;;;4.35;2.13;;;21.30;84.60;;;;;;5032164;28;20449;-65
2023/11/25 00:11:51;;;;;;;2.00;1.53;;;21.30;84.80;;;;;;5032449;28;20191;-65
2023/11/25 00:14:18;;;;;;;3.43;1.93;;;21.30;85.00;;;;;;5026292;28;20455;-65
2023/11/25 00:16:46;;;;;;;2.08;1.55;;;21.30;85.30;;;;;;5028133;28;20457;-65
2023/11/25 00:19:14;;;;;;;5.83;1.67;;;;;;;;;;5032708;28;20193;-65
2023/11/25 00:21:40;;;;;;;3.10;1.90;;;21.30;92.40;;;;;;5031557;28;20480;-65
2023/11/25 00:24:07;;;;;;;5.00;1.67;;;21.30;90.10;;;;;;5029379;28;20498;-65
2023/11/25 00:26:34;;;;;;;3.37;1.47;;;21.30;89.80;;;;;;5033775;28;20463;-65
2023/11/25 00:29:01;;;;;;;2.33;1.50;;;21.30;89.60;;;;;;5033106;28;20507;-65
2023/11/25 00:31:28;;;;;;;5.30;2.57;;;21.30;89.50;;;;;;5034803;28;20451;-65
2023/11/25 00:33:56;;;;;;;2.40;1.57;;;21.30;89.60;;;;;;5030644;28;20452;-65
2023/11/25 00:36:22;;;;;;;2.73;1.60;;;21.30;89.80;;;;;;5031077;28;20472;-65
2023/11/25 00:38:49;;;;;;;3.08;1.20;;;21.30;90.10;;;;;;5029275;28;20471;-67
2023/11/25 00:41:16;;;;;;;6.20;1.57;;;21.40;90.20;;;;;;5031758;28;20607;-67
2023/11/25 00:43:43;;;;;;;4.43;1.63;;;21.30;90.40;;;;;;5028281;28;21009;-67
2023/11/25 00:46:09;;;;;;;2.63;1.88;;;21.30;90.70;;;;;;5031343;28;20460;-66
2023/11/25 00:48:36;;;;;;;1.77;1.37;;;21.30;91.00;;;;;;5028090;28;20712;-67
2023/11/25 00:51:05;;;;;;;3.73;1.53;;;21.40;91.20;;;;;;5018516;28;20461;-67
2023/11/25 00:53:31;;;;;;;3.17;1.83;;;21.30;91.20;;;;;;5018740;28;20981;-64
2023/11/25 00:56:00;;;;;;;2.97;1.50;;;21.30;91.40;;;;;;5028754;28;20575;-67
2023/11/25 00:58:26;;;;;;;3.38;1.60;;;21.40;91.60;;;;;;5027047;28;20196;-66
2023/11/25 01:00:53;;;;;;;5.00;1.47;;;21.40;91.60;;;;;;5024189;28;20204;-66
2023/11/25 01:03:20;;;;;;;2.30;1.30;;;21.40;91.80;;;;;;5019923;28;20461;-67
2023/11/25 01:05:47;;;;;;;2.50;1.07;;;21.30;92.10;;;;;;5024501;28;20461;-65
2023/11/25 01:08:17;;;;;;;4.55;1.92;;;21.30;92.00;;;;;;5023084;28;20470;-65
2023/11/25 01:10:43;;;;;;;2.67;1.73;;;21.30;92.10;;;;;;5025736;28;20205;-66
2023/11/25 01:13:10;;;;;;;7.57;1.40;;;21.30;92.10;;;;;;5022633;28;20468;-65
2023/11/25 01:15:37;;;;;;;1.97;1.50;;;21.30;92.10;;;;;;5026657;28;20466;-65
2023/11/25 01:18:04;;;;;;;2.10;1.38;;;21.30;92.10;;;;;;5021346;28;20842;-64
2023/11/25 01:20:30;;;;;;;2.40;1.55;;;21.30;92.20;;;;;;5022201;28;20199;-64
2023/11/25 01:22:57;;;;;;;4.22;1.48;;;21.30;92.30;;;;;;5024280;28;20224;-65
2023/11/25 01:25:26;;;;;;;4.18;1.50;;;21.40;92.40;;;;;;5026052;28;20572;-64
2023/11/25 01:27:53;;;;;;;2.30;1.30;;;21.30;92.40;;;;;;5029345;28;20199;-65
2023/11/25 01:30:20;;;;;;;2.28;1.20;;;21.30;92.40;;;;;;5028262;28;20458;-65
2023/11/25 01:32:47;;;;;;;2.70;1.13;;;21.30;92.30;;;;;;5027345;28;20304;-67
2023/11/25 01:35:14;;;;;;;3.33;1.63;;;21.30;92.30;;;;;;5030333;28;20457;-67
2023/11/25 01:37:41;;;;;;;3.53;1.70;;;21.30;92.10;;;;;;5022647;28;20476;-66
2023/11/25 01:40:11;;;;;;;2.33;1.87;;;21.30;92.00;;;;;;5024163;28;21046;-67
2023/11/25 01:42:39;;;;;;;3.50;1.30;;;21.30;92.10;;;;;;5029224;28;20488;-67
2023/11/25 01:45:08;;;;;;;2.37;1.50;;;21.30;92.10;;;;;;5028778;28;20529;-64
2023/11/25 01:47:36;;;;;;;2.77;1.60;;;21.30;92.10;;;;;;5025971;28;20537;-67
2023/11/25 01:50:05;;;;;;;2.80;1.67;;;21.30;92.00;;;;;;5026220;28;20552;-67
2023/11/25 01:52:34;;;;;;;4.72;1.88;;;21.30;91.90;;;;;;5027307;28;20464;-66
2023/11/25 01:55:03;;;;;;;5.47;1.90;;;21.30;91.90;;;;;;5028518;28;20200;-64
2023/11/25 01:57:31;;;;;;;3.07;1.90;;;21.30;91.90;;;;;;5027910;28;20474;-64
2023/11/25 01:59:59;;;;;;;4.32;1.65;;;21.30;91.80;;;;;;5023635;28;20458;-66
2023/11/25 02:02:31;;;;;;;3.08;1.50;;;21.30;91.90;;;;;;5026647;28;20211;-65
2023/11/25 02:04:57;;;;;;;3.85;1.65;;;21.30;91.80;;;;;;5027957;28;20238;-65
2023/11/25 02:07:24;;;;;;;4.03;1.43;;;21.20;91.80;;;;;;5025651;28;20216;-66
2023/11/25 02:09:51;;;;;;;1.95;1.38;;;21.30;91.80;;;;;;5020784;28;20540;-65
2023/11/25 02:12:18;;;;;;;3.57;1.77;;;21.20;91.70;;;;;;5030276;28;20206;-66
2023/11/25 02:14:47;;;;;;;1.87;1.40;;;21.30;91.80;;;;;;5027491;28;21088;-67
2023/11/25 02:17:16;;;;;;;3.83;1.80;;;21.30;91.70;;;;;;5019313;28;20489;-65
2023/11/25 02:19:43;;;;;;;1.53;1.07;;;21.30;91.70;;;;;;5019237;28;20461;-65
2023/11/25 02:22:10;;;;;;;2.50;1.40;;;21.30;91.80;;;;;;5027515;28;20568;-65
2023/11/25 02:24:38;;;;;;;4.00;1.70;;;21.30;91.80;;;;;;5027956;28;20191;-65
2023/11/25 02:27:06;;;;;;;4.47;1.43;;;21.30;91.80;;;;;;5028614;28;20732;-66
2023/11/25 02:29:35;;;;;;;3.13;1.25;;;21.30;91.80;;;;;;5021012;28;20463;-67
2023/11/25 02:32:03;;;;;;;1.73;1.20;;;21.30;91.90;;;;;;5025307;28;20213;-67
2023/11/25 02:34:30;;;;;;;2.45;1.65;;;21.20;91.70;;;;;;5025268;28;20466;-67
2023/11/25 02:36:57;;;;;;;2.42;1.10;;;21.20;91.70;;;;;;5030009;28;20198;-66
2023/11/25 02:39:24;;;;;;;1.50;1.02;;;21.20;91.60;;;;;;5025988;28;20204;-66
2023/11/25 02:41:54;;;;;;;1.95;1.52;;;21.30;92.20;;;;;;5027543;28;21121;-66
2023/11/25 02:44:23;;;;;;;3.03;1.55;;;21.30;91.70;;;;;;5028386;28;20231;-66
2023/11/25 02:46:50;;;;;;;2.73;1.77;;;21.30;91.70;;;;;;5025530;28;20290;-66
2023/11/25 02:49:18;;;;;;;1.88;1.27;;;21.20;91.70;;;;;;5024294;28;20459;-66
2023/11/25 02:51:49;;;;;;;4.03;1.70;;;21.20;91.70;;;;;;5028434;28;20209;-66
2023/11/25 02:54:15;;;;;;;3.45;1.23;;;21.30;91.70;;;;;;5032125;28;20489;-66
2023/11/25 02:56:42;;;;;;;2.90;1.25;;;21.30;91.70;;;;;;5032192;28;20198;-66
2023/11/25 02:59:12;;;;;;;3.77;1.70;;;21.30;91.60;;;;;;5031384;28;20193;-66
2023/11/25 03:01:42;;;;;;;3.00;1.27;;;21.30;91.70;;;;;;5035179;28;20484;-66
2023/11/25 03:04:11;;;;;;;1.40;1.10;;;21.30;91.80;;;;;;5032049;28;20689;-67
2023/11/25 03:06:38;;;;;;;2.87;1.40;;;21.20;91.70;;;;;;5031892;28;20211;-66
2023/11/25 03:09:09;;;;;;;3.57;1.33;;;21.20;91.60;;;;;;5026923;28;20712;-66
2023/11/25 03:11:36;;;;;;;2.63;1.40;;;21.20;91.60;;;;;;5031794;28;20831;-67
2023/11/25 03:14:03;;;;;;;2.27;1.27;;;21.30;91.80;;;;;;5028519;28;20476;-66
2023/11/25 03:16:33;;;;;;;3.25;1.40;;;21.30;91.80;;;;;;5028024;28;20469;-66
2023/11/25 03:19:00;;;;;;;1.50;1.10;;;21.30;91.80;;;;;;5030777;28;20689;-66
2023/11/25 03:21:27;;;;;;;1.30;1.10;;;21.30;91.90;;;;;;5028130;28;20465;-66
2023/11/25 03:23:53;;;;;;;2.15;1.10;;;21.20;91.80;;;;;;5030742;28;20467;-66
2023/11/25 03:26:21;;;;;;;1.90;1.38;;;21.20;91.70;;;;;;5028698;28;20195;-66
2023/11/25 03:28:48;;;;;;;1.70;1.20;;;21.20;91.80;;;;;;5024493;28;20259;-66
2023/11/25 03:31:15;;;;;;;2.40;1.50;;;21.20;91.80;;;;;;5029762;28;20195;-67
2023/11/25 03:33:43;;;;;;;2.30;1.47;;;21.20;91.90;;;;;;5031927;28;20207;-66
2023/11/25 03:36:10;;;;;;;2.25;1.10;;;21.20;92.00;;;;;;5035664;28;20990;-67
2023/11/25 03:38:37;;;;;;;3.27;1.00;;;21.30;92.10;;;;;;5029828;28;20734;-67
2023/11/25 03:41:05;;;;;;;2.38;1.00;;;21.20;92.00;;;;;;5025103;28;20497;-66
2023/11/25 03:43:31;;;;;;;2.17;1.20;;;21.30;91.90;;;;;;5032193;28;20225;-66
2023/11/25 03:45:59;;;;;;;1.70;1.23;;;21.20;91.80;;;;;;5029239;28;20467;-66
2023/11/25 03:48:26;;;;;;;1.80;1.08;;;21.20;91.90;;;;;;5030428;28;20829;-66
2023/11/25 03:50:54;;;;;;;2.90;1.55;;;21.20;91.90;;;;;;5023651;28;20219;-66
2023/11/25 03:53:22;;;;;;;1.67;1.27;;;21.20;91.90;;;;;;5031755;28;20204;-66
2023/11/25 03:55:48;;;;;;;2.13;1.15;;;21.20;92.00;;;;;;5033157;28;20219;-67
2023/11/25 03:58:15;;;;;;;1.75;1.27;;;21.20;91.90;;;;;;5026865;28;20199;-66
2023/11/25 04:00:42;;;;;;;2.60;1.10;;;21.20;91.80;;;;;;5029495;28;20191;-66
2023/11/25 04:03:09;;;;;;;2.90;1.20;;;21.20;91.80;;;;;;5033442;28;20220;-65
2023/11/25 04:05:36;;;;;;;2.60;1.40;;;21.20;92.00;;;;;;5034617;28;20469;-65
2023/11/25 04:08:04;;;;;;;1.53;1.10;;;21.20;91.90;;;;;;5030819;28;20461;-65
2023/11/25 04:10:31;;;;;;;1.42;1.10;;;21.20;91.80;;;;;;5029331;28;20463;-64
2023/11/25 04:12:58;;;;;;;2.30;1.47;;;21.10;91.80;;;;;;5028484;28;20199;-65
2023/11/25 04:15:25;;;;;;;1.95;1.50;;;21.20;92.00;;;;;;5030736;28;20542;-64
2023/11/25 04:17:51;;;;;;;2.55;1.40;;;21.10;91.80;;;;;;5023461;28;20200;-65
2023/11/25 04:20:24;;;;;;;2.10;1.33;;;21.20;91.80;;;;;;5030348;28;20223;-65
2023/11/25 04:22:51;;;;;;;1.98;1.63;;;21.20;91.90;;;;;;5028617;28;20693;-65
2023/11/25 04:25:19;;;;;;;3.20;1.10;;;21.20;92.00;;;;;;5032233;28;20199;-66
2023/11/25 04:27:47;;;;;;;2.37;1.13;;;21.10;92.00;;;;;;5032254;28;20226;-65
2023/11/25 04:30:16;;;;;;;1.53;0.90;;;21.20;92.10;;;;;;5027168;28;20462;-65
2023/11/25 04:32:44;;;;;;;2.40;1.20;;;21.10;92.00;;;;;;5026860;28;20527;-67
2023/11/25 04:35:13;;;;;;;2.03;1.42;;;21.20;92.00;;;;;;5030528;28;20291;-67
2023/11/25 04:37:44;;;;;;;1.30;0.90;;;21.20;92.10;;;;;;5028435;28;20198;-67
2023/11/25 04:40:12;;;;;;;3.90;1.20;;;21.10;92.20;;;;;;5029108;28;20438;-67
2023/11/25 04:42:41;;;;;;;1.67;1.13;;;21.10;92.10;;;;;;5027984;28;20481;-64
2023/11/25 04:45:15;;;;;;;2.50;1.00;;;21.10;92.10;;;;;;5027766;28;20564;-67
2023/11/25 04:47:43;;;;;;;1.92;1.15;;;21.20;92.10;;;;;;5028352;28;20266;-67
2023/11/25 04:50:10;;;;;;;2.00;1.00;;;21.10;92.30;;;;;;5026825;28;20344;-67
2023/11/25 04:52:37;;;;;;;1.60;1.27;;;21.10;92.20;;;;;;5024371;28;20462;-67
2023/11/25 04:55:05;;;;;;;1.37;1.00;;;21.20;92.20;;;;;;5027547;28;21377;-66
2023/11/25 04:57:31;;;;;;;2.10;1.27;;;21.10;92.30;;;;;;5029722;28;20478;-66
2023/11/25 04:59:59;;;;;;;1.90;1.20;;;21.10;92.40;;;;;;5028620;28;21029;-66
2023/11/25 05:02:26;;;;;;;2.00;1.17;;;21.20;92.40;;;;;;5021989;28;20475;-66
2023/11/25 05:04:53;;;;;;;8.98;1.33;;;21.10;92.40;;;;;;5026597;28;20465;-67
2023/11/25 05:07:19;;;;;;;2.60;1.20;;;21.10;92.50;;;;;;5023498;28;20201;-67
2023/11/25 05:09:46;;;;;;;1.85;1.13;;;21.10;92.40;;;;;;5026801;28;20460;-66
2023/11/25 05:12:14;;;;;;;1.38;1.10;;;21.20;92.60;;;;;;5026802;28;20187;-66
2023/11/25 05:14:42;;;;;;;1.38;1.10;;;21.10;92.30;;;;;;5027962;28;20205;-66
2023/11/25 05:17:10;;;;;;;1.75;1.13;;;21.10;92.50;;;;;;5027929;28;20290;-67
2023/11/25 05:19:37;;;;;;;1.75;1.00;;;21.10;92.70;;;;;;5025284;28;20211;-64
2023/11/25 05:22:05;;;;;;;1.20;0.90;;;21.20;92.70;;;;;;5025900;28;20195;-66
2023/11/25 05:24:31;;;;;;;2.07;1.37;;;21.10;92.80;;;;;;5025224;28;20273;-66
2023/11/25 05:26:58;;;;;;;2.30;1.20;;;21.10;92.70;;;;;;5027479;28;20464;-67
2023/11/25 05:29:25;;;;;;;2.00;1.17;;;21.10;92.80;;;;;;5026436;28;20291;-67
2023/11/25 05:31:52;;;;;;;1.48;1.25;;;21.10;92.80;;;;;;5025344;28;20194;-66
2023/11/25 05:34:20;;;;;;;1.33;1.15;;;21.20;92.80;;;;;;5021573;28;20287;-66
2023/11/25 05:36:47;;;;;;;1.20;1.10;;;21.10;92.80;;;;;;5024177;28;20738;-66
2023/11/25 05:39:14;;;;;;;1.80;1.10;;;21.10;92.80;;;;;;5027484;28;20222;-66
2023/11/25 05:41:41;;;;;;;1.30;1.05;;;21.00;92.50;;;;;;5028230;28;20465;-66
2023/11/25 05:44:10;;;;;;;2.08;1.05;;;21.10;92.60;;;;;;5026315;28;20288;-67
2023/11/25 05:46:37;;;;;;;1.33;0.97;;;21.10;92.60;;;;;;5025139;28;20204;-66
2023/11/25 05:49:06;;;;;;;2.40;1.13;;;21.10;92.50;;;;;;5026511;28;20458;-66
2023/11/25 05:51:36;;;;;;;1.50;1.10;;;21.10;92.50;;;;;;5026073;28;20541;-66
2023/11/25 05:54:03;;;;;;;3.83;1.03;;;21.10;92.80;;;;;;5023755;28;20223;-66
2023/11/25 05:56:30;;;;;;;1.57;0.90;;;21.10;92.70;;;;;;5024336;28;20472;-66
2023/11/25 05:58:57;;;;;;;1.83;1.38;;;21.10;92.50;;;;;;5027456;28;20462;-66
2023/11/25 06:01:24;;;;;;;2.03;1.00;;;21.10;92.40;;;;;;5026157;28;20257;-66
2023/11/25 06:03:52;;;;;;;2.25;1.25;;;21.10;92.40;;;;;;5020966;28;20479;-66
2023/11/25 06:06:20;;;;;;;1.70;1.02;;;21.10;92.40;;;;;;5020126;28;20294;-66
2023/11/25 06:08:49;;;;;;;1.75;1.10;;;21.10;92.50;;;;;;5022958;28;20230;-67
2023/11/25 06:11:20;;;;;;;1.35;1.00;;;21.10;92.30;;;;;;5022497;28;20211;-66
2023/11/25 06:13:46;;;;;;;3.50;1.65;;;21.10;92.30;;;;;;5021307;28;20235;-66
2023/11/25 06:16:13;;;;;;;1.85;1.05;;;21.10;92.40;;;;;;5027340;28;20207;-66
2023/11/25 06:18:40;;;;;;;2.25;1.10;;;21.00;92.10;;;;;;5029326;28;20219;-66
2023/11/25 06:21:07;;;;;;;2.38;1.30;;;21.10;92.40;;;;;;5022863;28;20202;-66
2023/11/25 06:23:34;;;;;;;1.40;0.88;;;21.00;92.20;;;;;;5021696;28;20298;-66
2023/11/25 06:26:02;;;;;;;1.70;0.93;;;21.10;92.20;;;;;;5021051;28;20210;-66
2023/11/25 06:28:29;;;;;;;1.65;1.35;;;21.10;92.50;;;;;;5029961;28;20830;-66
2023/11/25 06:30:55;;;;;;;1.50;0.90;;;21.00;92.30;;;;;;5023890;28;20199;-66
2023/11/25 06:33:24;;;;;;;1.70;1.30;;;21.10;92.30;;;;;;5028771;28;20208;-66
2023/11/25 06:35:50;;;;;;;2.63;1.30;;;21.00;92.40;;;;;;5027472;28;20485;-66
2023/11/25 06:38:17;;;;;;;2.75;1.42;;;21.10;92.60;;;;;;5029095;28;20206;-66
2023/11/25 06:40:45;;;;;;;1.75;1.00;;;21.00;92.40;;;;;;5016434;28;20213;-66
2023/11/25 06:43:15;;;;;;;2.17;0.88;;;21.00;92.60;;;;;;5027525;28;20882;-66
2023/11/25 06:45:44;;;;;;;1.98;1.10;;;21.10;92.70;;;;;;5030827;28;20195;-66
2023/11/25 06:48:11;;;;;;;3.05;1.75;;;21.10;92.80;;;;;;5025849;28;20195;-66
2023/11/25 06:50:38;;;;;;;2.10;1.20;;;21.00;92.90;;;;;;5024191;28;20230;-66
2023/11/25 06:53:05;;;;;;;2.95;1.10;;;21.00;93.10;;;;;;5015141;28;20199;-66
2023/11/25 06:55:33;;;;;;;1.58;1.00;;;21.00;93.00;;;;;;5020870;28;20786;-66
2023/11/25 06:58:00;;;;;;;2.20;0.97;;;21.00;93.20;;;;;;5019709;28;20202;-66
2023/11/25 07:00:28;;;;;;;1.63;1.05;;;21.00;93.30;;;;;;5022314;28;20457;-67
2023/11/25 07:02:55;;;;;;;1.38;1.00;;;21.10;93.00;;;;;;5017908;28;20216;-68
2023/11/25 07:05:22;;;;;;;2.75;1.50;;;21.00;93.10;;;;;;5017760;28;20216;-67
2023/11/25 07:07:48;;;;;;;1.67;1.35;;;21.00;93.00;;;;;;5019707;28;20206;-67
2023/11/25 07:10:15;;;;;;;1.70;1.52;;;21.00;92.70;;;;;;5020070;28;20204;-67
2023/11/25 07:12:42;;;;;;;1.95;0.90;;;21.00;92.70;;;;;;5019323;28;21175;-67
2023/11/25 07:15:10;;;;;;;8.98;1.35;;;21.10;92.80;;;;;;5021833;28;20204;-67
2023/11/25 07:17:38;;;;;;;1.40;1.00;;;20.90;92.60;;;;;;5020118;28;20549;-67
2023/11/25 07:20:11;;;;;;;3.00;0.90;;;20.90;92.70;;;;;;5022425;28;20283;-67
2023/11/25 07:22:38;;;;;;;2.75;1.25;;;20.90;92.60;;;;;;5019453;28;20330;-67
2023/11/25 07:25:05;;;;;;;1.65;1.10;;;21.00;92.80;;;;;;5016312;28;20607;-68
2023/11/25 07:27:32;;;;;;;1.48;1.13;;;21.00;92.60;;;;;;5017373;28;20202;-68
2023/11/25 07:30:01;;;;;;;1.65;1.00;;;21.00;92.70;;;;;;5021699;28;20203;-68
2023/11/25 07:32:27;;;;;;;2.10;1.08;;;21.10;92.80;;;;;;5019751;28;20281;-68
2023/11/25 07:34:56;;;;;;;1.95;1.10;;;21.00;92.70;;;;;;5014041;28;20884;-68
2023/11/25 07:37:22;;;;;;;2.10;1.15;;;21.00;92.80;;;;;;5014848;28;20234;-68
2023/11/25 07:39:49;;;;;;;1.83;1.20;;;21.00;92.80;;;;;;5023602;28;20203;-69
2023/11/25 07:42:16;;;;;;;2.45;1.00;;;21.00;93.10;;;;;;5018738;28;20200;-67
2023/11/25 07:44:43;;;;;;;1.55;0.98;;;21.10;93.20;;;;;;5022259;28;20214;-69
2023/11/25 07:47:11;;;;;;;1.67;0.80;;;21.10;93.20;;;;;;5021266;28;20195;-66
2023/11/25 07:49:37;;;;;;;4.63;1.27;;;21.10;93.40;;;;;;5025202;28;20456;-66
2023/11/25 07:52:06;;;;;;;1.30;1.00;;;21.20;93.60;;;;;;5024141;28;20468;-66
2023/11/25 07:54:33;;;;;;;2.40;0.90;;;21.20;93.70;;;;;;5026987;28;20449;-65
2023/11/25 07:57:00;;;;;;;1.57;0.90;;;21.20;93.60;;;;;;5022635;28;20457;-68
2023/11/25 07:59:26;;;;;;;2.60;1.10;;;21.30;93.70;;;;;;5025784;28;20465;-64
2023/11/25 08:01:54;;;;;;;1.40;0.80;;;21.30;93.60;;;;;;5018382;28;20466;-66
2023/11/25 08:04:21;;;;;;;1.70;1.10;;;21.30;93.70;;;;;;5021230;28;20477;-66
2023/11/25 08:06:48;;;;;;;2.20;1.00;;;21.30;93.80;;;;;;5025278;28;20469;-57
2023/11/25 08:09:18;;;;;;;15.77;1.80;;;21.40;93.60;;;;;;5018711;28;20542;-64
2023/11/25 08:11:45;;;;;;;5.73;1.10;;;21.40;93.70;;;;;;5018882;28;20458;-64
2023/11/25 08:14:13;;;;;;;11.80;1.20;;;21.50;93.90;;;;;;5023572;28;20565;-59
2023/11/25 08:16:40;;;;;;;5.60;1.43;;;21.50;93.70;;;;;;5026995;28;20477;-62
2023/11/25 08:19:07;;;;;;;13.93;1.57;;;21.50;93.80;;;;;;5023907;28;20461;-63
2023/11/25 08:21:34;;;;;;;4.27;1.20;;;21.40;93.50;;;;;;5026889;28;20458;-63
2023/11/25 08:24:01;;;;;;;2.60;1.43;;;21.50;93.90;;;;;;5023786;28;20491;-62
2023/11/25 08:26:29;;;;;;;13.03;1.37;;;21.50;93.60;;;;;;5029408;28;20469;-62
2023/11/25 08:28:57;;;;;;;4.23;1.00;;;21.40;93.60;;;;;;5026990;28;20456;-62
2023/11/25 08:31:24;;;;;;;2.53;1.33;;;21.40;93.70;;;;;;5024858;28;20469;-62
2023/11/25 08:33:50;;;;;;;4.63;0.87;;;21.40;93.90;;;;;;5031296;28;20437;-64
2023/11/25 08:36:18;;;;;;;2.10;1.10;;;21.40;93.50;;;;;;5028053;28;20720;-62
2023/11/25 08:38:45;;;;;;;2.23;1.00;;;21.40;93.70;;;;;;5029932;28;20489;-63
2023/11/25 08:41:12;;;;;;;1.50;0.83;;;21.40;93.40;;;;;;5026425;28;20961;-62
2023/11/25 08:43:43;;;;;;;1.23;0.80;;;21.40;93.50;;;;;;5029988;28;20473;-62
2023/11/25 08:46:10;;;;;;;3.43;1.27;;;21.40;93.40;;;;;;5022227;28;22175;-62
2023/11/25 08:48:37;;;;;;;2.13;1.30;;;21.40;93.20;;;;;;5018028;28;20611;-61
2023/11/25 08:51:05;;;;;;;2.63;1.10;;;21.40;93.40;;;;;;5020856;28;20780;-64
2023/11/25 08:53:32;;;;;;;1.30;0.90;;;21.40;93.10;;;;;;5022449;28;20549;-63
2023/11/25 08:55:59;;;;;;;2.63;1.10;;;21.40;93.30;;;;;;5018417;28;20450;-63
2023/11/25 08:58:26;;;;;;;1.80;1.00;;;21.50;93.50;;;;;;5017357;28;20472;-62
2023/11/25 09:00:55;;;;;;;1.40;1.00;;;21.40;93.20;;;;;;5019187;28;20460;-62
2023/11/25 09:03:22;;;;;;;1.03;0.80;;;21.50;93.60;;;;;;5019987;28;20490;-70
2023/11/25 09:05:49;;;;;;;1.83;0.80;;;21.60;93.40;;;;;;5007056;28;20472;-66
2023/11/25 09:08:16;;;;;;;1.63;0.90;;;21.50;93.50;;;;;;5021869;28;20469;-68
2023/11/25 09:10:44;;;;;;;10.00;1.10;;;21.40;93.20;;;;;;5020989;28;20458;-68
2023/11/25 09:13:10;;;;;;;1.40;1.00;;;21.50;93.30;;;;;;5022384;28;20441;-69
2023/11/25 09:15:38;;;;;;;1.60;0.93;;;21.40;93.40;;;;;;5020327;28;21339;-66
2023/11/25 09:18:06;;;;;;;1.40;0.87;;;21.40;93.50;;;;;;5019428;28;20476;-66
2023/11/25 09:20:34;;;;;;;1.83;1.33;;;21.40;93.50;;;;;;5026177;28;20467;-68
2023/11/25 09:23:01;;;;;;;2.33;0.90;;;21.50;93.80;;;;;;5022147;28;20547;-71
2023/11/25 09:25:31;;;;;;;2.40;0.90;;;21.40;93.80;;;;;;5020562;28;20474;-69
2023/11/25 09:27:58;;;;;;;1.27;0.90;;;21.50;93.90;;;;;;5016948;28;20460;-66
2023/11/25 09:30:26;;;;;;;2.33;1.20;;;21.50;93.40;;;;;;5025995;28;20462;-66
2023/11/25 09:32:53;;;;;;;2.13;1.27;;;21.40;93.60;;;;;;5023032;28;20553;-66
2023/11/25 09:35:22;;;;;;;1.80;0.90;;;21.50;93.30;;;;;;5023729;28;20481;-65
2023/11/25 09:37:50;;;;;;;2.20;1.03;;;21.50;93.50;;;;;;5021804;28;20978;-66
2023/11/25 09:40:19;;;;;;;2.50;0.90;;;21.50;93.60;;;;;;5022583;28;20451;-64
2023/11/25 09:42:47;;;;;;;1.30;0.90;;;21.50;93.70;;;;;;5019542;28;21258;-66
2023/11/25 09:45:15;;;;;;;2.27;0.90;;;21.50;93.00;;;;;;5019675;28;20485;-66
2023/11/25 09:47:44;;;;;;;1.90;1.00;;;21.60;93.40;;;;;;5027861;28;20468;-65
2023/11/25 09:50:11;;;;;;;2.40;0.90;;;21.50;93.60;;;;;;5024049;28;20465;-66
2023/11/25 09:52:49;;;;;;;1.60;0.90;;;21.60;93.60;;;;;;5023296;28;21435;-66
2023/11/25 09:55:18;;;;;;;1.20;1.00;;;21.60;93.80;;;;;;5024171;28;20464;-67
2023/11/25 09:57:46;;;;;;;1.50;0.80;;;21.70;93.60;;;;;;5025052;28;20466;-67
2023/11/25 10:00:16;;;;;;;2.10;1.10;;;21.70;93.90;;;;;;5025597;28;20454;-67
2023/11/25 10:02:46;;;;;;;1.30;1.00;;;21.70;94.20;;;;;;5006009;28;20453;-66
2023/11/25 10:05:13;;;;;;;2.50;1.10;;;21.70;94.00;;;;;;5025765;28;20523;-68
2023/11/25 10:07:42;;;;;;;1.43;0.90;;;21.80;94.20;;;;;;5024690;28;20822;-66
2023/11/25 10:10:09;;;;;;;1.47;0.90;;;21.70;94.50;;;;;;5022800;28;20451;-66
2023/11/25 10:12:36;;;;;;;2.23;1.10;;;21.80;94.00;;;;;;5023739;28;20461;-68
2023/11/25 10:15:03;;;;;;;2.53;1.20;;;21.70;94.20;;;;;;5026499;28;21107;-66
2023/11/25 10:17:30;;;;;;;1.50;0.90;;;21.80;94.30;;;;;;5027910;28;20457;-65
2023/11/25 10:20:09;;;;;;;1.57;1.30;;;21.90;94.20;;;;;;5027498;28;20455;-67
2023/11/25 10:22:45;;;;;;;1.57;1.00;;;21.90;94.20;;;;;;5025429;28;20466;-67
2023/11/25 10:25:12;;;;;;;1.47;0.80;;;21.80;94.60;;;;;;5027593;28;20473;-66
2023/11/25 10:27:39;;;;;;;1.67;0.90;;;21.90;94.50;;;;;;5026453;28;20827;-67
2023/11/25 10:30:07;;;;;;;1.60;0.90;;;21.80;94.40;;;;;;5022786;28;20540;-69
2023/11/25 10:32:34;;;;;;;1.57;0.80;;;21.90;94.90;;;;;;5022365;28;20462;-67
2023/11/25 10:35:01;;;;;;;4.20;1.30;;;21.90;94.40;;;;;;5024606;28;20466;-71
2023/11/25 10:37:27;;;;;;;3.20;1.13;;;21.80;90.70;;;;;;5025017;28;20465;-70
2023/11/25 10:39:56;;;;;;;3.03;1.40;;;21.60;88.40;;;;;;5025976;28;21061;-71
2023/11/25 10:42:23;;;;;;;3.37;1.40;;;21.40;84.10;;;;;;5023592;28;20537;-76
2023/11/25 10:44:51;;;;;;;4.10;1.33;;;21.30;80.60;;;;;;5027194;28;20913;-72
2023/11/25 10:47:30;;;;;;;3.43;1.60;;;21.10;80.10;;;;;;5027238;28;20470;-71
2023/11/25 10:49:57;;;;;;;1.30;1.03;;;21.00;77.80;;;;;;5025461;28;20926;-70
2023/11/25 10:52:24;;;;;;;2.60;1.50;;;20.90;79.60;;;;;;5025227;28;20500;-70
2023/11/25 10:54:51;;;;;;;2.70;1.47;;;20.70;77.70;;;;;;5025857;28;20473;-73
2023/11/25 10:57:20;;;;;;;2.67;1.10;;;20.70;78.50;;;;;;5026548;28;20458;-70
2023/11/25 10:59:48;;;;;;;2.53;1.40;;;20.70;82.30;;;;;;5027242;28;20469;-73
2023/11/25 11:02:23;;;;;;;3.50;1.17;;;20.60;85.60;;;;;;5023442;28;20956;-62
2023/11/25 11:04:57;;;;;;;3.53;1.90;;;20.60;76.40;;;;;;5022296;28;20231;-65
2023/11/25 11:07:27;;;;;;;5.03;1.20;;;20.70;77.90;;;;;;5020305;28;20498;-66
2023/11/25 11:09:57;;;;;;;3.22;1.30;;;20.80;79.10;;;;;;5019511;28;20467;-66
2023/11/25 11:12:31;;;;;;;2.00;0.97;;;20.90;79.80;;;;;;5028710;28;20200;-66
2023/11/25 11:15:06;;;;;;;1.90;0.93;;;21.00;81.10;;;;;;5029030;28;20458;-70
2023/11/25 11:17:40;;;;;;;2.00;1.20;;;21.10;81.20;;;;;;5026430;28;20462;-65
2023/11/25 11:20:12;;;;;;;1.90;1.00;;;21.20;83.10;;;;;;5024769;28;20459;-66
2023/11/25 11:22:41;;;;;;;1.20;0.80;;;21.30;84.10;;;;;;5029648;28;20547;-67
2023/11/25 11:25:18;;;;;;;3.10;1.33;;;21.30;84.20;;;;;;5032410;28;20486;-67
2023/11/25 11:27:55;;;;;;;3.90;1.10;;;21.40;85.10;;;;;;5028183;28;20452;-66
2023/11/25 11:30:33;;;;;;;2.00;1.33;;;21.40;88.40;;;;;;5030754;28;20445;-68
2023/11/25 11:33:00;;;;;;;3.03;1.00;;;21.50;88.90;;;;;;5024270;28;20458;-69
2023/11/25 11:35:37;;;;;;;3.30;0.80;;;21.60;90.10;;;;;;5026370;28;20462;-69
2023/11/25 11:38:22;;;;;;;5.43;1.20;;;21.50;89.20;;;;;;5025373;28;20468;-68
2023/11/25 11:40:49;;;;;;;2.47;1.00;;;21.60;88.40;;;;;;5028414;28;20457;-69
2023/11/25 11:43:19;;;;;;;4.67;1.13;;;21.60;87.40;;;;;;5023108;28;20810;-71
2023/11/25 11:45:46;;;;;;;3.20;1.27;;;21.60;87.20;;;;;;5028550;28;20485;-70
2023/11/25 11:48:13;;;;;;;1.20;0.87;;;21.60;87.80;;;;;;5025179;28;20470;-70
2023/11/25 11:50:42;;;;;;;2.40;1.00;;;21.50;87.50;;;;;;5025933;28;20548;-65
2023/11/25 11:53:13;;;;;;;1.87;1.20;;;21.50;87.10;;;;;;5027291;28;20458;-65
2023/11/25 11:55:40;;;;;;;1.80;1.23;;;21.60;87.00;;;;;;5027749;28;20552;-65
2023/11/25 11:58:09;;;;;;;2.00;0.90;;;21.60;87.10;;;;;;5023487;28;20450;-66
2023/11/25 12:00:40;;;;;;;2.03;1.00;;;21.70;86.10;;;;;;5024404;28;20447;-67
2023/11/25 12:03:07;;;;;;;2.10;1.20;;;21.60;85.90;;;;;;5025111;28;20485;-64
2023/11/25 12:05:34;;;;;;;3.10;2.40;;;21.60;86.70;;;;;;5028719;28;20486;-69
2023/11/25 12:08:01;;;;;;;6.03;1.30;;;21.60;86.40;;;;;;5026688;28;20480;-69
2023/11/25 12:10:28;;;;;;;1.47;1.10;;;21.60;87.00;;;;;;5028995;28;20454;-65
2023/11/25 12:12:55;;;;;;;2.73;1.17;;;21.60;86.80;;;;;;5030606;28;20457;-65
2023/11/25 12:15:22;;;;;;;2.30;1.00;;;21.60;87.10;;;;;;5030926;28;20465;-67
2023/11/25 12:17:52;;;;;;;1.80;0.90;;;21.60;86.50;;;;;;5026796;28;20457;-66
2023/11/25 12:20:19;;;;;;;1.60;1.00;;;21.70;87.20;;;;;;5026825;28;21042;-69
2023/11/25 12:22:47;;;;;;;1.37;1.27;;;21.60;87.20;;;;;;5028413;28;20469;-69
2023/11/25 12:25:16;;;;;;;1.17;1.03;;;21.70;87.80;;;;;;5030514;28;20859;-66
2023/11/25 12:27:51;;;;;;;1.40;0.70;;;21.60;87.90;;;;;;5031791;28;20516;-66
2023/11/25 12:30:18;;;;;;;2.03;1.00;;;21.60;88.00;;;;;;5023516;28;20942;-66
2023/11/25 12:32:44;;;;;;;1.53;0.90;;;21.70;89.20;;;;;;5027620;28;20468;-65
2023/11/25 12:35:13;;;;;;;2.80;1.07;;;21.60;88.90;;;;;;5028695;28;20469;-67
2023/11/25 12:37:43;;;;;;;1.40;0.90;;;21.70;89.00;;;;;;5028242;28;20853;-67
2023/11/25 12:40:18;;;;;;;2.23;1.07;;;21.60;87.30;;;;;;5029612;28;20897;-67
2023/11/25 12:42:46;;;;;;;2.40;0.83;;;21.70;88.70;;;;;;5030817;28;20441;-66
2023/11/25 12:45:27;;;;;;;2.30;1.00;;;21.70;88.70;;;;;;5025958;28;20477;-67
2023/11/25 12:47:54;;;;;;;1.20;0.90;;;21.70;88.40;;;;;;5026989;28;20473;-69
2023/11/25 12:50:23;;;;;;;1.40;0.90;;;21.70;88.30;;;;;;5030079;28;20456;-67
2023/11/25 12:53:05;;;;;;;1.20;0.80;;;21.70;87.70;;;;;;5028435;28;20458;-67